Terminal Aerodrome Forecast
Issued by NWS

Home | Current Version | Previous Version | Text Only | Print | Product List | Glossary On
Versions: 1 2 3 4 5 6 7 8 9 10 11 12 13 14 15 16
000
FTUS45 KABQ 061100
TAFFMN
TAF
KFMN 061133Z 0612/0712 25008KT P6SM BKN050
     FM061800 25013G22KT P6SM VCSH BKN060
     FM070200 25007KT P6SM SCT060 SCT120
     FM070800 09006KT P6SM FEW120=

USA.gov is the U.S. government's official web portal to all federal, state and local government web resources and services.